createdAt,value
2022-10-07T00:01:04.128Z,61.17
2022-10-07T00:03:32.526Z,61.43
2022-10-07T00:06:13.646Z,61.42
2022-10-07T00:08:43.800Z,61.44
2022-10-07T00:11:16.588Z,61.24
2022-10-07T00:13:45.705Z,61.17
2022-10-07T00:16:18.308Z,61.51
2022-10-07T00:18:45.950Z,61.27
2022-10-07T00:21:14.922Z,61.51
2022-10-07T00:23:43.569Z,61.55
2022-10-07T00:26:14.337Z,61.40
2022-10-07T00:28:42.379Z,61.50
2022-10-07T00:31:17.089Z,61.45
2022-10-07T00:33:45.193Z,61.74
2022-10-07T00:36:17.638Z,61.71
2022-10-07T00:38:45.573Z,62.00
2022-10-07T00:41:26.328Z,61.78
2022-10-07T00:43:54.091Z,62.12
2022-10-07T00:46:40.279Z,61.69
2022-10-07T00:49:12.909Z,61.27
2022-10-07T00:51:41.370Z,61.45
2022-10-07T00:54:14.871Z,62.02
2022-10-07T00:56:42.708Z,61.29
2022-10-07T00:59:11.264Z,61.57
2022-10-07T01:01:41.066Z,61.47
2022-10-07T01:04:15.160Z,61.80
2022-10-07T01:06:42.967Z,61.83
2022-10-07T01:09:10.966Z,61.89
2022-10-07T01:12:00.862Z,61.46
2022-10-07T01:14:34.351Z,61.25
2022-10-07T01:17:09.435Z,61.33
2022-10-07T01:19:46.005Z,61.37
2022-10-07T01:22:20.243Z,61.45
2022-10-07T01:24:59.948Z,61.37
2022-10-07T01:27:27.837Z,61.65
2022-10-07T01:29:59.386Z,61.70
2022-10-07T01:32:36.836Z,61.65
2022-10-07T01:35:11.087Z,61.55
2022-10-07T01:37:43.445Z,61.63
2022-10-07T01:40:15.119Z,61.40
2022-10-07T01:42:43.291Z,61.13
2022-10-07T01:45:12.132Z,61.58
2022-10-07T01:47:39.949Z,61.24
2022-10-07T01:50:14.761Z,61.76
2022-10-07T01:53:12.941Z,61.54
2022-10-07T01:56:01.303Z,61.47
2022-10-07T01:58:42.286Z,61.36
2022-10-07T02:01:28.644Z,61.76
2022-10-07T02:03:56.298Z,61.51
2022-10-07T02:06:40.072Z,62.03
2022-10-07T02:09:33.333Z,62.02
2022-10-07T02:12:09.160Z,61.79
2022-10-07T02:14:41.357Z,61.33
2022-10-07T02:17:17.024Z,61.73
2022-10-07T02:19:54.023Z,61.57
2022-10-07T02:22:23.091Z,61.33
2022-10-07T02:24:55.289Z,61.47
2022-10-07T02:27:25.577Z,61.09
2022-10-07T02:29:54.556Z,61.49
2022-10-07T02:32:23.559Z,61.34
2022-10-07T02:34:54.651Z,61.38
2022-10-07T02:37:26.481Z,61.22
2022-10-07T02:39:55.224Z,61.14
2022-10-07T02:42:35.618Z,61.00
2022-10-07T02:45:16.842Z,61.12
2022-10-07T02:47:51.478Z,61.38
2022-10-07T02:50:22.931Z,61.07
2022-10-07T02:52:52.911Z,61.13
2022-10-07T02:55:23.206Z,61.01
2022-10-07T02:57:53.508Z,61.35
2022-10-07T03:00:21.123Z,61.63
2022-10-07T03:02:57.027Z,61.45
2022-10-07T03:05:26.102Z,61.46
2022-10-07T03:08:06.368Z,61.67
2022-10-07T03:10:34.519Z,61.48
2022-10-07T03:13:04.833Z,61.51
2022-10-07T03:15:39.730Z,61.34
2022-10-07T03:18:26.299Z,61.33
2022-10-07T03:20:55.514Z,61.44
2022-10-07T03:23:24.583Z,61.50
2022-10-07T03:25:53.530Z,62.07
2022-10-07T03:28:23.049Z,61.94
2022-10-07T03:30:51.374Z,61.66
2022-10-07T03:33:21.258Z,61.60
2022-10-07T03:35:48.873Z,61.28
2022-10-07T03:38:16.624Z,61.09
2022-10-07T03:40:44.444Z,61.15
2022-10-07T03:43:12.321Z,61.22
2022-10-07T03:45:44.504Z,61.43
2022-10-07T03:48:12.020Z,61.87
2022-10-07T03:50:39.870Z,61.93
2022-10-07T03:53:07.974Z,61.43
2022-10-07T03:55:35.336Z,61.43
2022-10-07T03:58:02.974Z,61.31
2022-10-07T04:00:30.346Z,61.28
2022-10-07T04:02:58.468Z,61.70
2022-10-07T04:05:25.851Z,61.56
2022-10-07T04:07:54.321Z,61.44
2022-10-07T04:10:22.046Z,61.29
2022-10-07T04:12:51.271Z,61.40
2022-10-07T04:15:19.583Z,61.26
2022-10-07T04:17:48.712Z,61.63
2022-10-07T04:20:17.182Z,61.61
2022-10-07T04:22:44.550Z,61.45
2022-10-07T04:25:31.377Z,61.08
2022-10-07T04:28:00.540Z,61.19
2022-10-07T04:30:34.549Z,61.66
2022-10-07T04:33:02.862Z,61.23
2022-10-07T04:35:30.945Z,60.96
2022-10-07T04:37:58.769Z,61.09
2022-10-07T04:40:27.519Z,61.28
2022-10-07T04:43:14.259Z,61.29
2022-10-07T04:45:41.782Z,61.42
2022-10-07T04:48:09.351Z,61.70
2022-10-07T04:50:40.369Z,61.61
2022-10-07T04:53:09.186Z,61.61
2022-10-07T04:55:41.456Z,61.58
2022-10-07T04:58:09.204Z,61.36
2022-10-07T05:00:44.563Z,61.46
2022-10-07T05:03:16.187Z,61.42
2022-10-07T05:05:45.800Z,61.59
2022-10-07T05:08:14.954Z,61.67
2022-10-07T05:10:42.758Z,61.54
2022-10-07T05:13:12.967Z,61.71
2022-10-07T05:15:51.912Z,61.58
2022-10-07T05:18:20.597Z,61.73
2022-10-07T05:20:48.922Z,61.88
2022-10-07T05:23:19.080Z,62.01
2022-10-07T05:25:46.866Z,61.58
2022-10-07T05:28:15.344Z,61.95
2022-10-07T05:30:42.788Z,61.44
2022-10-07T05:33:10.763Z,62.19
2022-10-07T05:35:38.699Z,61.68
2022-10-07T05:38:06.070Z,62.27
2022-10-07T05:40:33.739Z,62.37
2022-10-07T05:43:01.233Z,62.20
2022-10-07T05:45:31.308Z,61.90
2022-10-07T05:47:59.171Z,61.85
2022-10-07T05:50:26.732Z,61.45
2022-10-07T05:52:54.447Z,61.58
2022-10-07T05:55:22.292Z,61.57
2022-10-07T05:57:49.733Z,61.39
2022-10-07T06:00:17.192Z,61.05
2022-10-07T06:02:46.500Z,60.66
2022-10-07T06:05:14.534Z,60.15
2022-10-07T06:07:41.982Z,59.94
2022-10-07T06:10:28.523Z,59.94
2022-10-07T06:13:08.064Z,59.82
2022-10-07T06:15:36.793Z,59.94
2022-10-07T06:18:04.373Z,59.65
2022-10-07T06:20:32.161Z,59.58
2022-10-07T06:23:00.046Z,59.21
2022-10-07T06:25:27.443Z,59.02
2022-10-07T06:27:58.353Z,59.05
2022-10-07T06:30:27.617Z,58.08
2022-10-07T06:32:56.341Z,57.83
2022-10-07T06:35:23.708Z,57.73
2022-10-07T06:37:52.685Z,57.67
2022-10-07T06:40:20.366Z,57.43
2022-10-07T06:42:47.955Z,57.27
2022-10-07T06:45:16.026Z,56.53
2022-10-07T06:47:43.984Z,56.28
2022-10-07T06:50:11.799Z,56.65
2022-10-07T06:52:43.276Z,56.02
2022-10-07T06:55:11.577Z,56.18
2022-10-07T06:57:46.848Z,56.48
2022-10-07T07:00:16.015Z,56.37
2022-10-07T07:02:44.416Z,56.35
2022-10-07T07:05:15.698Z,55.85
2022-10-07T07:07:43.995Z,55.33
2022-10-07T07:10:12.461Z,54.91
2022-10-07T07:12:40.933Z,55.73
2022-10-07T07:15:09.650Z,55.99
2022-10-07T07:17:37.768Z,56.24
2022-10-07T07:20:06.250Z,55.82
2022-10-07T07:22:33.641Z,55.81
2022-10-07T07:25:01.286Z,54.79
2022-10-07T07:27:29.253Z,54.92
2022-10-07T07:29:57.754Z,55.16
2022-10-07T07:32:25.753Z,53.93
2022-10-07T07:37:25.803Z,53.37
2022-10-07T07:39:53.536Z,53.08
2022-10-07T07:42:21.743Z,52.87
2022-10-07T07:44:50.093Z,53.19
2022-10-07T07:47:17.799Z,53.32
2022-10-07T07:49:46.081Z,52.62
2022-10-07T07:52:15.095Z,52.13
2022-10-07T07:54:43.405Z,52.13
2022-10-07T07:57:11.290Z,52.16
2022-10-07T07:59:39.256Z,52.25
2022-10-07T08:02:07.826Z,51.84
2022-10-07T08:04:36.127Z,51.12
2022-10-07T08:07:04.019Z,51.26
2022-10-07T08:09:31.996Z,51.25
2022-10-07T08:12:00.519Z,51.49
2022-10-07T08:14:28.186Z,50.61
2022-10-07T08:16:57.626Z,51.09
2022-10-07T08:19:26.406Z,50.71
2022-10-07T08:21:53.973Z,50.76
2022-10-07T08:24:25.776Z,50.66
2022-10-07T08:26:56.249Z,50.27
2022-10-07T08:29:24.004Z,50.27
2022-10-07T08:31:51.992Z,49.75
2022-10-07T08:34:19.562Z,49.44
2022-10-07T08:36:48.654Z,48.99
2022-10-07T08:39:16.259Z,49.26
2022-10-07T08:42:08.564Z,48.84
2022-10-07T08:44:39.732Z,48.88
2022-10-07T08:47:43.936Z,48.85
2022-10-07T08:50:19.089Z,48.39
2022-10-07T08:52:53.879Z,49.27
2022-10-07T08:55:33.223Z,48.94
2022-10-07T08:58:09.030Z,48.29
2022-10-07T09:01:01.317Z,48.67
2022-10-07T09:03:31.796Z,48.97
2022-10-07T09:05:59.771Z,48.72
2022-10-07T09:08:38.099Z,48.64
2022-10-07T09:11:15.831Z,48.46
2022-10-07T09:13:51.051Z,48.48
2022-10-07T09:16:22.339Z,48.98
2022-10-07T09:18:59.691Z,48.85
2022-10-07T09:21:45.642Z,48.71
2022-10-07T09:24:23.193Z,49.09
2022-10-07T09:26:59.039Z,49.16
2022-10-07T09:29:30.400Z,49.18
2022-10-07T09:31:58.286Z,49.08
2022-10-07T09:34:29.771Z,48.70
2022-10-07T09:37:09.833Z,48.50
2022-10-07T09:39:37.954Z,48.31
2022-10-07T09:42:08.849Z,48.51
2022-10-07T09:44:36.580Z,47.93
2022-10-07T09:47:22.882Z,48.21
2022-10-07T09:49:59.669Z,47.70
2022-10-07T09:52:29.306Z,47.37
2022-10-07T09:55:02.262Z,47.14
2022-10-07T09:57:33.962Z,47.99
2022-10-07T10:00:13.659Z,46.87
2022-10-07T10:02:44.554Z,46.98
2022-10-07T10:05:25.691Z,46.77
2022-10-07T10:07:57.284Z,47.81
2022-10-07T10:10:30.397Z,47.04
2022-10-07T10:13:00.227Z,47.73
2022-10-07T10:15:42.648Z,47.48
2022-10-07T10:18:37.857Z,46.86
2022-10-07T10:21:29.821Z,46.85
2022-10-07T10:23:59.729Z,46.44
2022-10-07T10:26:48.879Z,45.99
2022-10-07T10:29:35.746Z,46.04
2022-10-07T10:32:11.202Z,45.99
2022-10-07T10:35:00.237Z,46.07
2022-10-07T10:37:41.753Z,46.49
2022-10-07T10:40:21.495Z,46.23
2022-10-07T10:43:07.468Z,45.72
2022-10-07T10:45:40.134Z,45.38
2022-10-07T10:48:29.233Z,44.87
2022-10-07T10:51:10.386Z,44.86
2022-10-07T10:54:10.398Z,45.16
2022-10-07T10:56:50.132Z,45.01
2022-10-07T11:00:01.857Z,45.60
2022-10-07T11:02:38.558Z,45.34
2022-10-07T11:05:38.760Z,45.00
2022-10-07T11:08:20.998Z,44.73
2022-10-07T11:10:59.561Z,44.60
2022-10-07T11:13:54.272Z,44.55
2022-10-07T11:16:27.871Z,44.21
2022-10-07T11:19:00.825Z,43.82
2022-10-07T11:21:41.459Z,43.55
2022-10-07T11:24:14.997Z,43.68
2022-10-07T11:26:45.260Z,43.67
2022-10-07T11:30:01.112Z,44.17
2022-10-07T11:32:34.252Z,43.57
2022-10-07T11:35:34.024Z,43.98
2022-10-07T11:38:14.757Z,43.70
2022-10-07T11:40:59.892Z,43.95
2022-10-07T11:43:46.559Z,43.52
2022-10-07T11:46:24.787Z,43.39
2022-10-07T11:49:03.670Z,43.09
2022-10-07T11:51:35.452Z,42.80
2022-10-07T11:54:06.665Z,42.22
2022-10-07T11:56:44.795Z,42.55
2022-10-07T11:59:48.048Z,42.15
2022-10-07T12:02:28.076Z,42.48
2022-10-07T12:04:57.498Z,42.87
2022-10-07T12:07:37.010Z,42.24
2022-10-07T12:10:07.417Z,42.05
2022-10-07T12:12:47.472Z,42.59
2022-10-07T12:15:35.369Z,42.42
2022-10-07T12:18:05.972Z,41.82
2022-10-07T12:20:42.957Z,42.09
2022-10-07T12:23:19.588Z,42.17
2022-10-07T12:25:59.970Z,42.88
2022-10-07T12:28:34.952Z,42.72
2022-10-07T12:31:05.253Z,42.33
2022-10-07T12:33:56.256Z,42.09
2022-10-07T12:36:23.926Z,41.85
2022-10-07T12:38:57.599Z,42.54
2022-10-07T12:41:28.095Z,42.11
2022-10-07T12:44:14.197Z,42.57
2022-10-07T12:46:56.561Z,42.29
2022-10-07T12:49:30.068Z,42.84
2022-10-07T12:52:05.537Z,43.02
2022-10-07T12:54:37.849Z,42.69
2022-10-07T12:57:12.252Z,42.52
2022-10-07T13:00:01.033Z,42.50
2022-10-07T13:02:31.668Z,43.29
2022-10-07T13:05:17.913Z,43.23
2022-10-07T13:08:00.314Z,42.80
2022-10-07T13:10:50.471Z,43.34
2022-10-07T13:13:50.860Z,42.70
2022-10-07T13:16:31.761Z,43.12
2022-10-07T13:19:16.068Z,43.55
2022-10-07T13:21:57.730Z,43.28
2022-10-07T13:24:28.494Z,43.41
2022-10-07T13:26:56.527Z,43.92
2022-10-07T13:29:32.894Z,44.03
2022-10-07T13:32:09.721Z,43.42
2022-10-07T13:34:37.859Z,43.53
2022-10-07T13:37:30.184Z,43.78
2022-10-07T13:39:59.044Z,43.36
2022-10-07T13:42:28.812Z,43.72
2022-10-07T13:45:03.086Z,43.71
2022-10-07T13:47:33.908Z,43.52
2022-10-07T13:50:02.617Z,43.38
2022-10-07T13:52:36.996Z,43.95
2022-10-07T13:55:28.568Z,43.94
2022-10-07T13:57:57.345Z,43.65
2022-10-07T14:00:25.552Z,43.49
2022-10-07T14:02:53.551Z,43.91
2022-10-07T14:05:30.515Z,43.44
2022-10-07T14:08:00.236Z,43.29
2022-10-07T14:10:29.898Z,43.15
2022-10-07T14:13:03.882Z,43.26
2022-10-07T14:15:34.825Z,43.03
2022-10-07T14:18:05.649Z,43.24
2022-10-07T14:20:42.314Z,43.15
2022-10-07T14:23:32.834Z,43.41
2022-10-07T14:26:01.714Z,43.37
2022-10-07T14:28:30.917Z,43.34
2022-10-07T14:31:23.062Z,43.33
2022-10-07T14:34:15.287Z,43.21
2022-10-07T14:37:03.256Z,42.69
2022-10-07T14:39:42.374Z,43.24
2022-10-07T14:42:27.800Z,43.37
2022-10-07T14:44:56.812Z,43.77
2022-10-07T14:47:26.113Z,44.06
2022-10-07T14:49:55.803Z,44.11
2022-10-07T14:52:35.447Z,44.06
2022-10-07T14:55:06.787Z,43.74
2022-10-07T14:57:34.693Z,43.50
2022-10-07T15:00:02.032Z,43.71
2022-10-07T15:02:29.398Z,43.59
2022-10-07T15:04:56.967Z,44.04
2022-10-07T15:07:24.872Z,44.20
2022-10-07T15:09:52.447Z,44.79
2022-10-07T15:12:20.024Z,44.53
2022-10-07T15:14:47.299Z,44.68
2022-10-07T15:17:15.280Z,45.07
2022-10-07T15:19:42.936Z,44.96
2022-10-07T15:22:10.239Z,45.11
2022-10-07T15:24:37.561Z,45.08
2022-10-07T15:27:07.089Z,45.19
2022-10-07T15:29:34.365Z,45.54
2022-10-07T15:32:01.695Z,45.82
2022-10-07T15:34:29.269Z,46.08
2022-10-07T15:36:56.652Z,46.47
2022-10-07T15:39:23.937Z,46.80
2022-10-07T15:41:51.539Z,46.88
2022-10-07T15:44:21.980Z,47.00
2022-10-07T15:46:52.924Z,47.08
2022-10-07T15:49:20.557Z,47.05
2022-10-07T15:51:48.367Z,47.50
2022-10-07T15:54:15.844Z,47.45
2022-10-07T15:56:43.939Z,47.51
2022-10-07T15:59:11.304Z,47.71
2022-10-07T16:01:38.710Z,47.95
2022-10-07T16:04:11.578Z,47.81
2022-10-07T16:06:39.041Z,47.84
2022-10-07T16:09:06.703Z,48.27
2022-10-07T16:11:34.567Z,48.34
2022-10-07T16:14:02.384Z,48.38
2022-10-07T16:16:31.404Z,48.44
2022-10-07T16:19:00.006Z,48.66
2022-10-07T16:21:39.060Z,48.61
2022-10-07T16:24:13.586Z,49.08
2022-10-07T16:26:41.531Z,49.51
2022-10-07T16:29:32.810Z,49.77
2022-10-07T16:32:00.522Z,49.98
2022-10-07T16:34:28.699Z,50.44
2022-10-07T16:36:57.470Z,50.56
2022-10-07T16:39:25.220Z,50.61
2022-10-07T16:41:53.143Z,50.95
2022-10-07T16:44:21.145Z,50.85
2022-10-07T16:46:49.168Z,51.22
2022-10-07T16:49:18.259Z,51.33
2022-10-07T16:51:45.977Z,51.58
2022-10-07T16:54:15.939Z,51.88
2022-10-07T16:56:49.016Z,52.33
2022-10-07T16:59:23.727Z,52.48
2022-10-07T17:01:54.928Z,52.65
2022-10-07T17:04:23.286Z,52.93
2022-10-07T17:06:50.616Z,53.32
2022-10-07T17:09:18.519Z,53.30
2022-10-07T17:11:46.430Z,53.38
2022-10-07T17:14:19.274Z,53.61
2022-10-07T17:16:49.717Z,53.87
2022-10-07T17:19:20.402Z,53.95
2022-10-07T17:21:49.639Z,54.27
2022-10-07T17:24:18.336Z,54.42
2022-10-07T17:26:46.004Z,54.59
2022-10-07T17:29:18.083Z,54.90
2022-10-07T17:31:48.183Z,55.04
2022-10-07T17:34:16.644Z,55.23
2022-10-07T17:36:43.993Z,55.32
2022-10-07T17:39:11.992Z,55.52
2022-10-07T17:41:39.857Z,55.77
2022-10-07T17:44:09.375Z,55.78
2022-10-07T17:46:39.119Z,56.08
2022-10-07T17:49:09.671Z,56.16
2022-10-07T17:51:37.626Z,56.40
2022-10-07T17:54:05.999Z,56.62
2022-10-07T17:56:37.301Z,56.66
2022-10-07T17:59:05.375Z,56.67
2022-10-07T18:01:34.353Z,56.55
2022-10-07T18:04:07.674Z,56.73
2022-10-07T18:06:37.406Z,56.89
2022-10-07T18:09:07.067Z,57.01
2022-10-07T18:11:53.103Z,57.35
2022-10-07T18:14:39.186Z,57.29
2022-10-07T18:17:08.100Z,57.34
2022-10-07T18:19:35.936Z,57.36
2022-10-07T18:22:03.437Z,57.46
2022-10-07T18:24:30.859Z,57.33
2022-10-07T18:27:00.786Z,57.24
2022-10-07T18:29:33.322Z,57.30
2022-10-07T18:32:01.136Z,57.38
2022-10-07T18:34:28.584Z,57.66
2022-10-07T18:36:57.263Z,57.80
2022-10-07T18:39:27.625Z,57.70
2022-10-07T18:41:55.622Z,57.74
2022-10-07T18:44:23.189Z,57.72
2022-10-07T18:46:51.218Z,57.94
2022-10-07T18:49:18.788Z,58.11
2022-10-07T18:51:47.155Z,58.27
2022-10-07T18:54:14.825Z,58.08
2022-10-07T18:56:42.436Z,57.97
2022-10-07T18:59:12.973Z,57.97
2022-10-07T19:01:41.074Z,57.97
2022-10-07T19:04:09.476Z,57.97
2022-10-07T19:06:39.937Z,57.93
2022-10-07T19:09:10.501Z,57.96
2022-10-07T19:11:37.886Z,57.96
2022-10-07T19:14:05.281Z,58.13
2022-10-07T19:16:36.160Z,57.97
2022-10-07T19:19:05.846Z,58.42
2022-10-07T19:21:34.332Z,58.13
2022-10-07T19:24:02.093Z,58.03
2022-10-07T19:26:33.891Z,58.25
2022-10-07T19:29:02.062Z,58.29
2022-10-07T19:31:35.363Z,58.11
2022-10-07T19:34:05.417Z,58.25
2022-10-07T19:36:35.177Z,58.29
2022-10-07T19:39:04.324Z,58.42
2022-10-07T19:41:33.117Z,58.38
2022-10-07T19:44:00.516Z,58.55
2022-10-07T19:46:30.291Z,58.20
2022-10-07T19:48:59.113Z,58.59
2022-10-07T19:51:28.498Z,58.75
2022-10-07T19:53:57.384Z,58.76
2022-10-07T19:56:28.076Z,58.68
2022-10-07T19:59:00.352Z,58.71
2022-10-07T20:01:29.344Z,58.72
2022-10-07T20:04:02.991Z,58.72
2022-10-07T20:06:30.534Z,59.00
2022-10-07T20:08:58.348Z,58.94
2022-10-07T20:11:27.692Z,59.29
2022-10-07T20:13:55.023Z,60.09
2022-10-07T20:16:27.495Z,59.06
2022-10-07T20:18:58.549Z,58.99
2022-10-07T20:21:26.012Z,58.91
2022-10-07T20:23:53.878Z,59.11
2022-10-07T20:26:24.236Z,59.06
2022-10-07T20:28:54.000Z,60.98
2022-10-07T20:31:23.679Z,59.94
2022-10-07T20:33:52.991Z,59.29
2022-10-07T20:36:31.314Z,59.08
2022-10-07T20:39:25.337Z,59.32
2022-10-07T20:42:12.256Z,59.03
2022-10-07T20:44:39.636Z,58.94
2022-10-07T20:47:08.789Z,59.19
2022-10-07T20:49:38.587Z,59.31
2022-10-07T20:52:12.400Z,59.13
2022-10-07T20:54:40.219Z,59.58
2022-10-07T20:57:07.813Z,59.80
2022-10-07T20:59:35.103Z,59.39
2022-10-07T21:02:07.252Z,59.34
2022-10-07T21:04:36.750Z,59.31
2022-10-07T21:07:04.431Z,59.31
2022-10-07T21:09:36.150Z,59.69
2022-10-07T21:12:07.387Z,59.92
2022-10-07T21:14:35.859Z,59.94
2022-10-07T21:17:04.876Z,59.71
2022-10-07T21:19:34.074Z,59.63
2022-10-07T21:22:03.195Z,59.73
2022-10-07T21:24:34.195Z,59.61
2022-10-07T21:27:03.513Z,59.69
2022-10-07T21:29:31.379Z,59.79
2022-10-07T21:32:00.033Z,60.09
2022-10-07T21:34:29.699Z,60.14
2022-10-07T21:36:57.629Z,60.11
2022-10-07T21:39:26.318Z,60.08
2022-10-07T21:41:54.615Z,60.13
2022-10-07T21:44:21.954Z,60.10
2022-10-07T21:46:49.523Z,60.25
2022-10-07T21:49:17.409Z,60.05
2022-10-07T21:51:44.711Z,60.01
2022-10-07T21:54:16.511Z,59.99
2022-10-07T21:56:46.091Z,60.15
2022-10-07T21:59:14.163Z,60.05
2022-10-07T22:01:42.612Z,60.00
2022-10-07T22:04:16.202Z,60.35
2022-10-07T22:07:02.664Z,60.17
2022-10-07T22:09:31.113Z,60.21
2022-10-07T22:11:58.661Z,60.15
2022-10-07T22:14:41.291Z,60.16
2022-10-07T22:17:08.918Z,60.39
2022-10-07T22:19:36.234Z,60.02
2022-10-07T22:22:04.483Z,60.20
2022-10-07T22:24:32.266Z,60.38
2022-10-07T22:27:00.200Z,60.61
2022-10-07T22:29:28.291Z,60.34
2022-10-07T22:31:55.862Z,60.23
2022-10-07T22:34:50.331Z,60.74
2022-10-07T22:37:18.172Z,60.38
2022-10-07T22:39:45.529Z,60.51
2022-10-07T22:42:12.828Z,60.42
2022-10-07T22:44:40.420Z,60.44
2022-10-07T22:47:07.730Z,60.43
2022-10-07T22:49:35.014Z,60.22
2022-10-07T22:52:02.646Z,60.29
2022-10-07T22:54:30.104Z,60.42
2022-10-07T22:56:57.419Z,60.32
2022-10-07T22:59:24.951Z,60.31
2022-10-07T23:01:52.923Z,60.33
2022-10-07T23:04:21.332Z,60.29
2022-10-07T23:06:49.012Z,60.25
2022-10-07T23:09:16.587Z,60.23
2022-10-07T23:11:43.874Z,60.22
2022-10-07T23:14:12.551Z,60.40
2022-10-07T23:16:39.830Z,60.44
2022-10-07T23:19:08.608Z,60.29
2022-10-07T23:21:36.995Z,60.47
2022-10-07T23:24:07.765Z,60.48
2022-10-07T23:26:36.788Z,60.36
2022-10-07T23:29:04.105Z,60.32
2022-10-07T23:31:32.565Z,60.19
2022-10-07T23:34:02.150Z,60.49
2022-10-07T23:36:29.742Z,60.37
2022-10-07T23:38:59.459Z,60.43
2022-10-07T23:41:28.432Z,60.52
2022-10-07T23:43:57.441Z,60.26
2022-10-07T23:46:26.286Z,60.50
2022-10-07T23:48:54.431Z,60.39
2022-10-07T23:51:24.297Z,60.50
2022-10-07T23:53:51.628Z,60.11
2022-10-07T23:56:19.246Z,60.40
2022-10-07T23:58:46.696Z,60.21
